createdAt,value
2022-11-07T00:00:12.857Z,95969.38
2022-11-07T00:01:18.061Z,95971.91
2022-11-07T00:02:23.557Z,95971.91
2022-11-07T00:03:25.657Z,95970.09
2022-11-07T00:04:31.318Z,95969.97
2022-11-07T00:05:35.964Z,95968.28
2022-11-07T00:06:38.214Z,95968.13
2022-11-07T00:07:42.943Z,95967.25
2022-11-07T00:08:45.771Z,95967.16
2022-11-07T00:09:50.440Z,95969.69
2022-11-07T00:10:57.101Z,95976.47
2022-11-07T00:12:01.988Z,95972.03
2022-11-07T00:13:04.246Z,95974.41
2022-11-07T00:14:09.104Z,95978.06
2022-11-07T00:15:11.623Z,95981.53
2022-11-07T00:16:16.934Z,95973.66
2022-11-07T00:17:21.642Z,95982.03
2022-11-07T00:18:23.724Z,95988.13
2022-11-07T00:19:28.380Z,95979.44
2022-11-07T00:20:30.423Z,95983.00
2022-11-07T00:21:35.311Z,95988.13
2022-11-07T00:22:37.387Z,95984.75
2022-11-07T00:23:43.626Z,95989.66
2022-11-07T00:24:45.636Z,95984.47
2022-11-07T00:25:50.317Z,95990.22
2022-11-07T00:26:55.062Z,95990.91
2022-11-07T00:27:59.812Z,95994.41
2022-11-07T00:29:02.368Z,95992.66
2022-11-07T00:30:08.164Z,96004.75
2022-11-07T00:31:12.553Z,95991.75
2022-11-07T00:32:17.213Z,95991.75
2022-11-07T00:33:19.230Z,95988.88
2022-11-07T00:34:24.018Z,95992.22
2022-11-07T00:35:26.161Z,95999.34
2022-11-07T00:36:31.882Z,96001.78
2022-11-07T00:37:36.553Z,96006.00
2022-11-07T00:38:38.734Z,96010.38
2022-11-07T00:39:43.345Z,96002.63
2022-11-07T00:40:54.556Z,96007.75
2022-11-07T00:42:01.836Z,96003.50
2022-11-07T00:43:03.987Z,96001.59
2022-11-07T00:44:09.098Z,95992.28
2022-11-07T00:45:11.900Z,96001.16
2022-11-07T00:46:19.554Z,96003.91
2022-11-07T00:47:21.651Z,96004.63
2022-11-07T00:48:26.562Z,96009.00
2022-11-07T00:49:28.576Z,96009.66
2022-11-07T00:50:33.198Z,96011.47
2022-11-07T00:51:38.012Z,96008.56
2022-11-07T00:52:40.023Z,96004.31
2022-11-07T00:53:45.967Z,96006.97
2022-11-07T00:54:50.652Z,96012.91
2022-11-07T00:55:52.741Z,96012.13
2022-11-07T00:56:57.389Z,96021.50
2022-11-07T00:58:02.040Z,96025.56
2022-11-07T00:59:06.683Z,96021.38
2022-11-07T01:00:10.594Z,96026.25
2022-11-07T01:01:17.910Z,96024.59
2022-11-07T01:02:22.783Z,96016.91
2022-11-07T01:03:39.905Z,96027.16
2022-11-07T01:04:57.122Z,96024.72
2022-11-07T01:06:00.861Z,96027.47
2022-11-07T01:07:07.053Z,96021.38
2022-11-07T01:08:09.054Z,96031.03
2022-11-07T01:09:15.534Z,96024.88
2022-11-07T01:10:17.815Z,96033.56
2022-11-07T01:11:22.789Z,96019.56
2022-11-07T01:12:27.501Z,96028.16
2022-11-07T01:13:33.249Z,96031.50
2022-11-07T01:14:39.123Z,96023.06
2022-11-07T01:15:41.894Z,96030.72
2022-11-07T01:16:47.611Z,96030.81
2022-11-07T01:17:50.027Z,96028.84
2022-11-07T01:18:54.765Z,96031.50
2022-11-07T01:19:56.781Z,96024.88
2022-11-07T01:21:01.424Z,96028.38
2022-11-07T01:22:06.120Z,96023.13
2022-11-07T01:23:09.143Z,96022.28
2022-11-07T01:24:15.349Z,96025.03
2022-11-07T01:25:17.450Z,96028.38
2022-11-07T01:26:22.255Z,96031.72
2022-11-07T01:27:24.474Z,96033.31
2022-11-07T01:28:29.079Z,96024.66
2022-11-07T01:29:36.382Z,96027.94
2022-11-07T01:30:38.742Z,96024.44
2022-11-07T01:31:43.966Z,96022.13
2022-11-07T01:32:46.181Z,96023.91
2022-11-07T01:33:50.832Z,96016.19
2022-11-07T01:34:55.443Z,96012.56
2022-11-07T01:36:05.739Z,96016.03
2022-11-07T01:37:10.749Z,96025.50
2022-11-07T01:38:12.951Z,96012.78
2022-11-07T01:39:17.604Z,96005.69
2022-11-07T01:40:19.867Z,96009.84
2022-11-07T01:41:27.090Z,96000.38
2022-11-07T01:42:31.870Z,96012.72
2022-11-07T01:43:45.662Z,96000.81
2022-11-07T01:44:57.248Z,96013.13
2022-11-07T01:45:59.022Z,96012.97
2022-11-07T01:47:04.280Z,96009.66
2022-11-07T01:48:09.017Z,96005.31
2022-11-07T01:49:18.781Z,96018.72
2022-11-07T01:50:24.586Z,96006.22
2022-11-07T01:51:44.276Z,96012.72
2022-11-07T01:52:52.144Z,96009.78
2022-11-07T01:54:27.567Z,96019.63
2022-11-07T01:55:36.620Z,96017.13
2022-11-07T01:56:44.286Z,96016.53
2022-11-07T01:57:49.863Z,96025.19
2022-11-07T01:58:55.884Z,96026.22
2022-11-07T02:00:04.377Z,96025.59
2022-11-07T02:01:09.055Z,96022.50
2022-11-07T02:02:14.051Z,96024.31
2022-11-07T02:03:22.103Z,96014.91
2022-11-07T02:04:30.637Z,96023.91
2022-11-07T02:05:40.590Z,96028.44
2022-11-07T02:06:45.963Z,96022.75
2022-11-07T02:07:50.661Z,96022.31
2022-11-07T02:08:53.379Z,96024.19
2022-11-07T02:09:58.661Z,96024.19
2022-11-07T02:11:02.804Z,96024.47
2022-11-07T02:12:08.247Z,96014.97
2022-11-07T02:13:15.478Z,96023.75
2022-11-07T02:14:21.351Z,96018.91
2022-11-07T02:15:26.435Z,96020.13
2022-11-07T02:16:32.790Z,96010.91
2022-11-07T02:17:35.540Z,96015.47
2022-11-07T02:18:43.809Z,96016.56
2022-11-07T02:19:51.528Z,96017.03
2022-11-07T02:20:57.440Z,96013.41
2022-11-07T02:22:06.393Z,96022.38
2022-11-07T02:23:13.506Z,96021.53
2022-11-07T02:24:27.968Z,96014.00
2022-11-07T02:25:33.211Z,96020.84
2022-11-07T02:26:37.249Z,96024.91
2022-11-07T02:27:43.779Z,96028.97
2022-11-07T02:28:48.296Z,96021.41
2022-11-07T02:29:57.401Z,96028.06
2022-11-07T02:30:59.466Z,96021.19
2022-11-07T02:32:05.805Z,96022.81
2022-11-07T02:33:18.209Z,96020.31
2022-11-07T02:34:22.858Z,96020.09
2022-11-07T02:35:38.194Z,96028.75
2022-11-07T02:36:43.553Z,96028.75
2022-11-07T02:37:45.617Z,96026.22
2022-11-07T02:38:57.516Z,96027.13
2022-11-07T02:40:05.643Z,96031.34
2022-11-07T02:41:14.664Z,96025.19
2022-11-07T02:42:17.551Z,96025.88
2022-11-07T02:43:25.280Z,96026.03
2022-11-07T02:44:28.767Z,96027.78
2022-11-07T02:45:40.148Z,96020.94
2022-11-07T02:46:42.525Z,96024.41
2022-11-07T02:47:47.559Z,96025.34
2022-11-07T02:48:52.464Z,96015.03
2022-11-07T02:49:57.116Z,96018.69
2022-11-07T02:50:59.435Z,96009.47
2022-11-07T02:52:04.092Z,96013.00
2022-11-07T02:53:06.155Z,96011.25
2022-11-07T02:54:10.855Z,96019.19
2022-11-07T02:55:15.724Z,96016.84
2022-11-07T02:56:21.171Z,96015.00
2022-11-07T02:57:23.244Z,96020.31
2022-11-07T02:58:28.044Z,96018.38
2022-11-07T02:59:32.734Z,96013.34
2022-11-07T03:00:34.786Z,96013.06
2022-11-07T03:01:40.069Z,96023.25
2022-11-07T03:02:47.240Z,96006.94
2022-11-07T03:03:53.846Z,96015.19
2022-11-07T03:04:56.079Z,96005.53
2022-11-07T03:06:00.796Z,96006.41
2022-11-07T03:07:02.897Z,96007.03
2022-11-07T03:08:08.304Z,96013.41
2022-11-07T03:09:10.325Z,96009.09
2022-11-07T03:10:18.690Z,96010.69
2022-11-07T03:11:20.950Z,96011.19
2022-11-07T03:12:25.645Z,96002.03
2022-11-07T03:13:27.792Z,96010.47
2022-11-07T03:14:32.477Z,96001.94
2022-11-07T03:15:34.538Z,96007.91
2022-11-07T03:16:40.390Z,96012.03
2022-11-07T03:17:42.940Z,96016.13
2022-11-07T03:18:47.880Z,96015.22
2022-11-07T03:19:49.916Z,96009.78
2022-11-07T03:20:54.586Z,96006.44
2022-11-07T03:21:56.681Z,96013.25
2022-11-07T03:23:01.374Z,96010.38
2022-11-07T03:24:06.279Z,96018.16
2022-11-07T03:25:08.750Z,96020.72
2022-11-07T03:26:16.042Z,96021.38
2022-11-07T03:27:18.291Z,96017.81
2022-11-07T03:28:23.183Z,96021.06
2022-11-07T03:29:25.376Z,96026.25
2022-11-07T03:30:30.085Z,96017.59
2022-11-07T03:31:32.165Z,96024.44
2022-11-07T03:32:36.875Z,96029.59
2022-11-07T03:33:38.920Z,96030.38
2022-11-07T03:34:43.691Z,96028.63
2022-11-07T03:35:48.739Z,96021.78
2022-11-07T03:36:50.763Z,96027.03
2022-11-07T03:37:55.564Z,96024.28
2022-11-07T03:38:57.867Z,96024.09
2022-11-07T03:40:02.926Z,96027.66
2022-11-07T03:41:08.004Z,96029.47
2022-11-07T03:42:12.709Z,96028.47
2022-11-07T03:43:17.647Z,96037.06
2022-11-07T03:44:19.850Z,96022.97
2022-11-07T03:45:24.622Z,96025.69
2022-11-07T03:46:26.622Z,96024.91
2022-11-07T03:47:31.311Z,96030.88
2022-11-07T03:48:35.945Z,96028.91
2022-11-07T03:49:37.988Z,96025.25
2022-11-07T03:50:42.612Z,96031.19
2022-11-07T03:51:44.679Z,96032.09
2022-11-07T03:52:50.237Z,96026.91
2022-11-07T03:53:52.406Z,96035.41
2022-11-07T03:54:57.948Z,96028.94
2022-11-07T03:56:00.099Z,96031.66
2022-11-07T03:57:04.899Z,96035.16
2022-11-07T03:58:09.650Z,96029.72
2022-11-07T03:59:14.295Z,96024.53
2022-11-07T04:00:17.779Z,96026.19
2022-11-07T04:01:22.558Z,96026.34
2022-11-07T04:02:24.826Z,96025.38
2022-11-07T04:03:29.538Z,96031.22
2022-11-07T04:04:31.602Z,96033.19
2022-11-07T04:05:36.536Z,96037.59
2022-11-07T04:06:38.727Z,96033.19
2022-11-07T04:07:43.509Z,96033.03
2022-11-07T04:08:45.810Z,96037.31
2022-11-07T04:09:50.485Z,96030.28
2022-11-07T04:10:52.767Z,96033.97
2022-11-07T04:12:09.850Z,96040.13
2022-11-07T04:13:29.661Z,96041.88
2022-11-07T04:14:46.701Z,96040.94
2022-11-07T04:16:05.659Z,96045.97
2022-11-07T04:17:21.891Z,96047.06
2022-11-07T04:18:26.760Z,96047.75
2022-11-07T04:19:28.843Z,96052.22
2022-11-07T04:20:33.511Z,96046.91
2022-11-07T04:21:35.726Z,96051.31
2022-11-07T04:22:40.539Z,96053.75
2022-11-07T04:23:42.631Z,96047.75
2022-11-07T04:24:48.254Z,96055.44
2022-11-07T04:26:05.390Z,96051.16
2022-11-07T04:27:23.813Z,96051.09
2022-11-07T04:28:31.054Z,96049.34
2022-11-07T04:29:33.158Z,96048.97
2022-11-07T04:30:37.779Z,96052.19
2022-11-07T04:31:39.794Z,96050.50
2022-11-07T04:32:44.599Z,96061.69
2022-11-07T04:33:46.595Z,96053.72
2022-11-07T04:34:51.239Z,96052.03
2022-11-07T04:35:53.375Z,96053.19
2022-11-07T04:36:58.009Z,96065.34
2022-11-07T04:38:01.033Z,96061.69
2022-11-07T04:39:05.689Z,96056.66
2022-11-07T04:40:09.317Z,96061.00
2022-11-07T04:41:22.303Z,96062.81
2022-11-07T04:42:24.429Z,96063.69
2022-11-07T04:43:31.637Z,96073.75
2022-11-07T04:44:33.738Z,96072.03
2022-11-07T04:45:39.425Z,96067.78
2022-11-07T04:46:41.485Z,96069.41
2022-11-07T04:47:46.215Z,96065.13
2022-11-07T04:48:48.277Z,96072.81
2022-11-07T04:49:52.876Z,96068.41
2022-11-07T04:50:57.724Z,96074.16
2022-11-07T04:51:59.969Z,96066.38
2022-11-07T04:53:04.787Z,96068.09
2022-11-07T04:54:08.965Z,96065.34
2022-11-07T04:55:20.926Z,96064.41
2022-11-07T04:56:22.957Z,96062.81
2022-11-07T04:57:27.675Z,96056.75
2022-11-07T04:58:34.938Z,96057.41
2022-11-07T04:59:36.982Z,96060.84
2022-11-07T05:00:41.583Z,96059.91
2022-11-07T05:01:43.801Z,96065.88
2022-11-07T05:02:48.533Z,96059.91
2022-11-07T05:03:50.596Z,96064.19
2022-11-07T05:04:55.711Z,96057.41
2022-11-07T05:05:58.002Z,96057.56
2022-11-07T05:07:02.700Z,96059.16
2022-11-07T05:08:05.277Z,96069.44
2022-11-07T05:09:09.922Z,96065.88
2022-11-07T05:10:18.264Z,96068.59
2022-11-07T05:11:23.064Z,96060.84
2022-11-07T05:12:27.785Z,96067.00
2022-11-07T05:13:32.424Z,96069.38
2022-11-07T05:14:37.052Z,96072.72
2022-11-07T05:15:39.163Z,96074.25
2022-11-07T05:16:46.010Z,96067.25
2022-11-07T05:17:48.653Z,96077.78
2022-11-07T05:18:53.305Z,96074.41
2022-11-07T05:19:55.488Z,96070.97
2022-11-07T05:21:00.290Z,96075.03
2022-11-07T05:22:17.371Z,96073.03
2022-11-07T05:23:20.248Z,96078.66
2022-11-07T05:24:25.191Z,96081.50
2022-11-07T05:25:27.262Z,96074.72
2022-11-07T05:26:31.850Z,96076.22
2022-11-07T05:27:33.880Z,96078.19
2022-11-07T05:28:41.163Z,96077.31
2022-11-07T05:29:43.166Z,96076.53
2022-11-07T05:30:48.704Z,96074.97
2022-11-07T05:31:50.773Z,96077.78
2022-11-07T05:32:55.425Z,96076.94
2022-11-07T05:34:00.409Z,96083.81
2022-11-07T05:35:02.477Z,96081.41
2022-11-07T05:36:18.036Z,96089.97
2022-11-07T05:37:20.124Z,96081.50
2022-11-07T05:38:24.956Z,96079.13
2022-11-07T05:39:26.971Z,96075.09
2022-11-07T05:40:31.875Z,96087.34
2022-11-07T05:41:36.004Z,96077.66
2022-11-07T05:42:40.632Z,96086.00
2022-11-07T05:43:48.324Z,96086.28
2022-11-07T05:44:50.386Z,96084.25
2022-11-07T05:45:55.044Z,96087.97
2022-11-07T05:46:57.861Z,96084.66
2022-11-07T05:48:03.593Z,96083.97
2022-11-07T05:49:08.218Z,96078.81
2022-11-07T05:50:10.467Z,96084.81
2022-11-07T05:51:15.083Z,96080.19
2022-11-07T05:52:17.147Z,96080.81
2022-11-07T05:53:21.951Z,96080.09
2022-11-07T05:54:24.909Z,96077.63
2022-11-07T05:55:29.640Z,96087.88
2022-11-07T05:56:34.389Z,96079.22
2022-11-07T05:57:36.487Z,96087.72
2022-11-07T05:58:41.211Z,96082.69
2022-11-07T05:59:45.992Z,96080.06
2022-11-07T06:00:51.233Z,96080.25
2022-11-07T06:01:53.676Z,96085.22
2022-11-07T06:03:00.599Z,96083.63
2022-11-07T06:04:03.943Z,96083.47
2022-11-07T06:05:09.606Z,96082.84
2022-11-07T06:06:11.735Z,96077.53
2022-11-07T06:07:16.456Z,96089.56
2022-11-07T06:08:21.068Z,96085.13
2022-11-07T06:09:23.116Z,96085.75
2022-11-07T06:10:28.433Z,96085.75
2022-11-07T06:11:32.025Z,96087.47
2022-11-07T06:12:36.710Z,96098.38
2022-11-07T06:13:41.612Z,96085.34
2022-11-07T06:14:46.247Z,96091.78
2022-11-07T06:15:51.304Z,96092.06
2022-11-07T06:16:53.380Z,96095.59
2022-11-07T06:17:58.395Z,96090.41
2022-11-07T06:19:03.066Z,96096.31
2022-11-07T06:20:06.296Z,96097.41
2022-11-07T06:21:11.053Z,96093.72
2022-11-07T06:22:13.128Z,96092.84
2022-11-07T06:23:18.422Z,96096.47
2022-11-07T06:24:20.750Z,96100.00
2022-11-07T06:25:26.071Z,96100.00
2022-11-07T06:26:28.176Z,96099.22
2022-11-07T06:27:33.859Z,96104.41
2022-11-07T06:28:36.514Z,96100.19
2022-11-07T06:29:41.225Z,96100.19
2022-11-07T06:30:51.361Z,96097.66
2022-11-07T06:31:53.592Z,96095.97
2022-11-07T06:32:58.791Z,96089.28
2022-11-07T06:34:01.073Z,96082.41
2022-11-07T06:35:06.011Z,96088.44
2022-11-07T06:36:10.325Z,96093.53
2022-11-07T06:37:15.049Z,96095.97
2022-11-07T06:38:17.129Z,96098.56
2022-11-07T06:39:21.788Z,96102.84
2022-11-07T06:40:23.875Z,96099.91
2022-11-07T06:41:28.669Z,96101.81
2022-11-07T06:42:31.004Z,96098.09
2022-11-07T06:43:36.435Z,96096.31
2022-11-07T06:44:38.447Z,96098.22
2022-11-07T06:45:43.831Z,96099.06
2022-11-07T06:46:48.621Z,96106.78
2022-11-07T06:47:53.305Z,96101.44
2022-11-07T06:48:55.577Z,96102.97
2022-11-07T06:50:00.198Z,96093.44
2022-11-07T06:51:04.284Z,96102.50
2022-11-07T06:52:09.011Z,96098.91
2022-11-07T06:53:13.553Z,96099.16
2022-11-07T06:54:18.867Z,96100.13
2022-11-07T06:55:22.114Z,96106.06
2022-11-07T06:56:27.418Z,96111.19
2022-11-07T06:57:30.471Z,96105.06
2022-11-07T06:58:35.138Z,96110.25
2022-11-07T06:59:39.781Z,96106.84
2022-11-07T07:00:41.921Z,96110.97
2022-11-07T07:01:46.646Z,96116.91
2022-11-07T07:02:58.526Z,96120.34
2022-11-07T07:04:05.690Z,96110.66
2022-11-07T07:05:08.813Z,96106.03
2022-11-07T07:06:16.982Z,96110.38
2022-11-07T07:07:19.070Z,96122.34
2022-11-07T07:08:23.662Z,96122.25
2022-11-07T07:09:25.919Z,96117.06
2022-11-07T07:10:30.827Z,96126.69
2022-11-07T07:11:39.335Z,96125.41
2022-11-07T07:12:41.723Z,96121.19
2022-11-07T07:13:46.348Z,96118.44
2022-11-07T07:14:48.369Z,96118.16
2022-11-07T07:15:56.636Z,96127.31
2022-11-07T07:16:59.425Z,96121.03
2022-11-07T07:18:07.735Z,96126.22
2022-11-07T07:19:12.429Z,96129.44
2022-11-07T07:20:17.410Z,96124.25
2022-11-07T07:21:19.802Z,96126.63
2022-11-07T07:22:24.558Z,96126.69
2022-11-07T07:23:26.629Z,96119.97
2022-11-07T07:24:31.479Z,96123.56
2022-11-07T07:25:36.309Z,96129.88
2022-11-07T07:26:38.382Z,96124.66
2022-11-07T07:27:43.127Z,96128.41
2022-11-07T07:28:45.136Z,96126.47
2022-11-07T07:29:50.622Z,96126.94
2022-11-07T07:30:55.374Z,96136.91
2022-11-07T07:32:00.038Z,96124.72
2022-11-07T07:33:04.904Z,96133.78
2022-11-07T07:34:09.543Z,96128.31
2022-11-07T07:35:11.598Z,96134.63
2022-11-07T07:36:20.701Z,96131.13
2022-11-07T07:37:22.925Z,96127.94
2022-11-07T07:38:27.568Z,96127.00
2022-11-07T07:39:30.865Z,96127.69
2022-11-07T07:40:35.479Z,96130.38
2022-11-07T07:41:40.170Z,96131.66
2022-11-07T07:42:45.894Z,96132.72
2022-11-07T07:43:50.559Z,96138.84
2022-11-07T07:44:52.808Z,96139.16
2022-11-07T07:46:00.893Z,96140.41
2022-11-07T07:47:07.054Z,96135.91
2022-11-07T07:48:17.241Z,96136.84
2022-11-07T07:49:21.924Z,96144.34
2022-11-07T07:50:23.959Z,96137.75
2022-11-07T07:51:28.718Z,96144.91
2022-11-07T07:52:33.457Z,96147.22
2022-11-07T07:53:38.176Z,96144.69
2022-11-07T07:54:40.285Z,96141.91
2022-11-07T07:55:45.043Z,96148.78
2022-11-07T07:56:49.690Z,96147.25
2022-11-07T07:57:51.771Z,96148.31
2022-11-07T07:58:56.544Z,96149.09
2022-11-07T08:00:01.249Z,96147.16
2022-11-07T08:01:10.618Z,96152.44
2022-11-07T08:02:15.914Z,96148.44
2022-11-07T08:03:21.171Z,96155.28
2022-11-07T08:04:25.850Z,96157.13
2022-11-07T08:05:28.006Z,96160.53
2022-11-07T08:06:35.227Z,96152.31
2022-11-07T08:07:47.046Z,96154.88
2022-11-07T08:08:51.678Z,96156.97
2022-11-07T08:09:53.757Z,96153.47
2022-11-07T08:11:04.255Z,96153.19
2022-11-07T08:12:08.798Z,96154.19
2022-11-07T08:13:13.694Z,96156.69
2022-11-07T08:14:16.074Z,96161.22
2022-11-07T08:15:22.234Z,96158.13
2022-11-07T08:16:27.078Z,96154.91
2022-11-07T08:17:29.159Z,96158.34
2022-11-07T08:18:39.948Z,96157.72
2022-11-07T08:19:44.596Z,96160.28
2022-11-07T08:20:49.356Z,96162.41
2022-11-07T08:21:54.056Z,96160.34
2022-11-07T08:23:04.378Z,96158.94
2022-11-07T08:24:10.270Z,96157.56
2022-11-07T08:25:13.291Z,96152.53
2022-11-07T08:26:17.912Z,96149.97
2022-11-07T08:27:20.013Z,96154.97
2022-11-07T08:28:26.833Z,96148.28
2022-11-07T08:29:31.564Z,96158.69
2022-11-07T08:30:33.687Z,96153.66
2022-11-07T08:31:38.451Z,96155.59
2022-11-07T08:32:40.541Z,96153.56
2022-11-07T08:33:48.061Z,96159.59
2022-11-07T08:34:50.486Z,96153.22
2022-11-07T08:35:56.920Z,96150.78
2022-11-07T08:36:58.951Z,96156.66
2022-11-07T08:38:03.683Z,96153.59
2022-11-07T08:39:08.298Z,96157.03
2022-11-07T08:40:11.754Z,96164.75
2022-11-07T08:41:21.036Z,96157.75
2022-11-07T08:42:26.962Z,96157.19
2022-11-07T08:43:32.030Z,96161.88
2022-11-07T08:44:36.648Z,96165.28
2022-11-07T08:45:41.423Z,96171.38
2022-11-07T08:46:43.510Z,96157.09
2022-11-07T08:47:48.236Z,96165.19
2022-11-07T08:48:55.454Z,96164.34
2022-11-07T08:49:57.460Z,96166.25
2022-11-07T08:51:03.081Z,96172.81
2022-11-07T08:52:05.437Z,96165.94
2022-11-07T08:53:10.630Z,96170.19
2022-11-07T08:54:15.374Z,96171.69
2022-11-07T08:55:17.608Z,96171.22
2022-11-07T08:56:22.284Z,96173.75
2022-11-07T08:57:24.366Z,96168.72
2022-11-07T08:58:30.412Z,96178.91
2022-11-07T08:59:35.212Z,96172.97
2022-11-07T09:00:39.920Z,96164.44
2022-11-07T09:02:14.452Z,96166.97
2022-11-07T09:03:31.162Z,96167.72
2022-11-07T09:04:35.847Z,96167.72
2022-11-07T09:05:38.969Z,96178.16
2022-11-07T09:06:43.653Z,96167.13
2022-11-07T09:07:45.818Z,96169.72
2022-11-07T09:08:50.518Z,96176.91
2022-11-07T09:09:55.226Z,96172.19
2022-11-07T09:11:04.530Z,96173.13
2022-11-07T09:12:07.677Z,96173.28
2022-11-07T09:13:14.946Z,96171.84
2022-11-07T09:14:17.321Z,96173.19
2022-11-07T09:15:23.070Z,96179.41
2022-11-07T09:16:27.795Z,96176.53
2022-11-07T09:17:29.850Z,96171.94
2022-11-07T09:18:35.047Z,96174.41
2022-11-07T09:19:39.695Z,96180.19
2022-11-07T09:20:44.437Z,96177.34
2022-11-07T09:21:49.322Z,96175.91
2022-11-07T09:22:59.138Z,96172.72
2022-11-07T09:24:03.844Z,96172.22
2022-11-07T09:25:06.879Z,96174.22
2022-11-07T09:26:11.910Z,96178.44
2022-11-07T09:27:13.942Z,96175.84
2022-11-07T09:28:18.786Z,96171.31
2022-11-07T09:29:23.771Z,96186.78
2022-11-07T09:30:25.880Z,96182.22
2022-11-07T09:31:30.601Z,96181.75
2022-11-07T09:32:44.894Z,96179.41
2022-11-07T09:33:50.350Z,96182.69
2022-11-07T09:34:59.330Z,96183.78
2022-11-07T09:36:07.231Z,96184.38
2022-11-07T09:37:09.313Z,96184.47
2022-11-07T09:38:14.789Z,96185.38
2022-11-07T09:39:19.507Z,96194.13
2022-11-07T09:40:40.552Z,96184.78
2022-11-07T09:41:54.780Z,96190.66
2022-11-07T09:43:07.034Z,96194.81
2022-11-07T09:44:29.726Z,96191.69
2022-11-07T09:45:43.372Z,96184.22
2022-11-07T09:46:55.886Z,96178.25
2022-11-07T09:48:06.317Z,96195.97
2022-11-07T09:49:15.551Z,96189.66
2022-11-07T09:50:30.344Z,96191.94
2022-11-07T09:51:37.430Z,96184.91
2022-11-07T09:52:50.713Z,96191.94
2022-11-07T09:53:58.599Z,96187.53
2022-11-07T09:55:07.604Z,96192.56
2022-11-07T09:56:13.182Z,96192.44
2022-11-07T09:57:19.799Z,96191.44
2022-11-07T09:58:29.896Z,96187.94
2022-11-07T09:59:39.101Z,96179.09
2022-11-07T10:00:44.414Z,96184.69
2022-11-07T10:01:46.652Z,96185.03
2022-11-07T10:02:53.016Z,96184.84
2022-11-07T10:04:23.528Z,96184.56
2022-11-07T10:05:32.929Z,96188.53
2022-11-07T10:06:45.770Z,96192.03
2022-11-07T10:07:59.839Z,96194.88
2022-11-07T10:09:16.432Z,96194.94
2022-11-07T10:10:27.951Z,96194.56
2022-11-07T10:11:38.828Z,96185.88
2022-11-07T10:12:57.649Z,96181.06
2022-11-07T10:14:19.546Z,96180.91
2022-11-07T10:15:30.481Z,96191.66
2022-11-07T10:16:43.678Z,96184.38
2022-11-07T10:17:56.533Z,96179.56
2022-11-07T10:19:12.278Z,96182.19
2022-11-07T10:20:30.153Z,96187.53
2022-11-07T10:21:48.446Z,96177.59
2022-11-07T10:23:12.946Z,96185.41
2022-11-07T10:24:34.344Z,96191.13
2022-11-07T10:25:49.448Z,96188.06
2022-11-07T10:26:51.615Z,96187.97
2022-11-07T10:28:08.029Z,96181.25
2022-11-07T10:29:17.163Z,96181.78
2022-11-07T10:30:21.242Z,96180.03
2022-11-07T16:36:24.758Z,96136.13
2022-11-07T16:37:29.946Z,96135.53
2022-11-07T16:38:35.456Z,96134.94
2022-11-07T16:39:42.655Z,96134.38
2022-11-07T16:40:47.993Z,96129.56
2022-11-07T16:41:53.546Z,96132.38
2022-11-07T16:43:02.719Z,96129.84
2022-11-07T16:44:10.961Z,96138.84
2022-11-07T16:45:29.793Z,96143.50
2022-11-07T16:46:47.646Z,96132.53
2022-11-07T16:47:56.201Z,96142.47
2022-11-07T16:49:06.215Z,96140.09
2022-11-07T16:50:12.974Z,96148.16
2022-11-07T16:51:21.936Z,96145.91
2022-11-07T16:52:28.229Z,96146.25
2022-11-07T16:53:30.313Z,96144.84
2022-11-07T16:54:34.989Z,96156.31
2022-11-07T16:55:37.241Z,96154.91
2022-11-07T16:56:42.986Z,96152.53
2022-11-07T16:57:48.878Z,96152.09
2022-11-07T16:58:51.565Z,96150.63
2022-11-07T16:59:56.250Z,96148.31
2022-11-07T17:01:00.094Z,96148.56
2022-11-07T17:02:09.018Z,96149.72
2022-11-07T17:03:16.813Z,96155.16
2022-11-07T17:04:21.590Z,96144.19
2022-11-07T17:05:23.651Z,96151.28
2022-11-07T17:06:33.745Z,96154.00
2022-11-07T17:07:35.822Z,96153.34
2022-11-07T17:08:42.628Z,96153.47
2022-11-07T17:09:47.286Z,96158.78
2022-11-07T17:10:52.276Z,96156.34
2022-11-07T17:11:56.901Z,96159.97
2022-11-07T17:13:01.588Z,96155.53
2022-11-07T17:14:04.352Z,96152.22
2022-11-07T17:15:10.534Z,96151.59
2022-11-07T17:16:16.623Z,96150.91
2022-11-07T17:17:21.789Z,96150.94
2022-11-07T17:18:25.655Z,96158.00
2022-11-07T17:19:30.339Z,96158.13
2022-11-07T17:20:50.517Z,96155.66
2022-11-07T17:21:58.778Z,96153.22
2022-11-07T17:23:00.781Z,96158.50
2022-11-07T17:24:07.450Z,96156.78
2022-11-07T17:25:09.976Z,96158.53
2022-11-07T17:26:15.866Z,96153.34
2022-11-07T17:27:24.161Z,96153.47
2022-11-07T17:28:26.234Z,96157.34
2022-11-07T17:29:30.929Z,96148.75
2022-11-07T17:30:33.703Z,96149.44
2022-11-07T17:31:38.530Z,96155.53
2022-11-07T17:32:40.612Z,96152.03
2022-11-07T17:33:45.460Z,96155.53
2022-11-07T17:35:10.659Z,96159.59
2022-11-07T17:36:26.007Z,96159.31
2022-11-07T17:37:33.264Z,96160.06
2022-11-07T17:38:37.975Z,96155.75
2022-11-07T17:39:40.060Z,96151.47
2022-11-07T17:40:44.770Z,96159.88
2022-11-07T17:41:50.939Z,96151.56
2022-11-07T17:42:52.990Z,96153.22
2022-11-07T17:43:58.951Z,96152.06
2022-11-07T17:45:03.606Z,96149.88
2022-11-07T17:46:09.192Z,96152.06
2022-11-07T17:47:30.459Z,96158.91
2022-11-07T17:48:32.546Z,96153.94
2022-11-07T17:49:37.179Z,96153.63
2022-11-07T17:50:41.848Z,96156.13
2022-11-07T17:51:46.876Z,96154.03
2022-11-07T17:52:54.728Z,96152.94
2022-11-07T17:53:57.827Z,96143.41
2022-11-07T17:55:02.568Z,96152.22
2022-11-07T17:56:08.238Z,96165.09
2022-11-07T17:57:10.691Z,96154.50
2022-11-07T17:58:15.507Z,96154.75
2022-11-07T17:59:22.816Z,96155.00
2022-11-07T18:00:29.417Z,96159.63
2022-11-07T18:01:34.034Z,96159.88
2022-11-07T18:02:38.990Z,96159.28
2022-11-07T18:03:43.689Z,96158.78
2022-11-07T18:04:49.097Z,96159.88
2022-11-07T18:05:53.743Z,96165.25
2022-11-07T18:06:58.550Z,96160.22
2022-11-07T18:08:07.285Z,96167.31
2022-11-07T18:09:18.224Z,96167.44
2022-11-07T18:10:22.997Z,96160.72
2022-11-07T18:11:27.713Z,96170.28
2022-11-07T18:12:32.368Z,96168.72
2022-11-07T18:13:37.582Z,96169.50
2022-11-07T18:14:45.408Z,96165.44
2022-11-07T18:15:50.189Z,96157.81
2022-11-07T18:16:52.520Z,96168.19
2022-11-07T18:17:57.295Z,96166.53
2022-11-07T18:19:01.572Z,96167.41
2022-11-07T18:20:07.419Z,96160.53
2022-11-07T18:21:10.348Z,96161.50
2022-11-07T18:22:15.367Z,96168.44
2022-11-07T18:23:20.083Z,96165.06
2022-11-07T18:24:25.064Z,96164.31
2022-11-07T18:25:31.193Z,96161.84
2022-11-07T18:26:34.926Z,96164.63
2022-11-07T18:27:40.076Z,96162.09
2022-11-07T18:28:42.905Z,96169.06
2022-11-07T18:29:47.766Z,96159.84
2022-11-07T18:30:50.012Z,96162.59
2022-11-07T18:31:57.763Z,96162.75
2022-11-07T18:33:00.058Z,96162.97
2022-11-07T18:34:07.057Z,96161.25
2022-11-07T18:35:10.003Z,96166.50
2022-11-07T18:36:17.234Z,96165.66
2022-11-07T18:37:22.203Z,96166.53
2022-11-07T18:38:29.948Z,96167.16
2022-11-07T18:39:33.527Z,96164.25
2022-11-07T18:40:38.440Z,96167.06
2022-11-07T18:41:40.664Z,96161.75
2022-11-07T18:42:47.228Z,96160.16
2022-11-07T18:43:51.001Z,96165.47
2022-11-07T18:44:55.951Z,96158.50
2022-11-07T18:45:58.972Z,96157.84
2022-11-07T18:47:03.751Z,96166.53
2022-11-07T18:48:08.873Z,96164.13
2022-11-07T18:49:14.470Z,96166.00
2022-11-07T18:50:19.313Z,96163.59
2022-11-07T18:51:23.623Z,96162.41
2022-11-07T18:52:30.879Z,96162.41
2022-11-07T18:53:38.254Z,96158.97
2022-11-07T18:54:43.200Z,96164.22
2022-11-07T18:55:48.179Z,96159.22